To NAV CANADA Home Page Login to a new session Search on AWWS site Feedback and Comments Disclaimer Vers la page française équivalente Tips FAQ What's new on the site To the Forecasts and Observations / NOTAM section To "File a Flight Plan" website Publications and other links Update of the User's profile FIC Telephone Numbers My Weather Data Folder Route Weather Data Regional Weather Data Local Weather Data To the Forecasts and Observations / NOTAM section
Request Generated 02/23/2017 at 20:46:25 UTC . Weather information available at that time is displayed.

METAR/TAF

MONTREAL INTL (MIRABEL)/QC    

METAR CYMX 232000Z 25005KT 210V290 6SM BR OVC014 08/06 A2953 RMK SC8
SLP006=
METAR CYMX 231900Z 22005KT 6SM BR OVC014 06/06 A2952 RMK SC8 SLP000=
SPECI CYMX 231839Z 26002KT 6SM BR VCSH OVC017 06/05 A2953 RMK SC8
CVCTV CLDS EMBD SLP004=
SPECI CYMX 231831Z 00000KT 6SM BR VCSH OVC014 05/04 A2953 RMK SC8
CVCTV CLDS EMBD SLP004=
METAR CYMX 231800Z 00000KT 6SM BR VCSH OVC021 05/04 A2952 RMK SC8
DIST LTNGS NW QUAD SLP001=

TAF CYMX 231740Z 2318/2418 VRB03KT P6SM BKN030 TEMPO 2318/2321 5SM
-RA BR FEW007 OVC015 PROB30 2318/2319 2SM TSRA BR BKN015
OVC030CB
FM232100 24010KT P6SM BKN025 TEMPO 2321/2323 5SM -DZ BR OVC015
FM232300 27007KT P6SM BKN025 TEMPO 2323/2402 BKN015
FM240300 VRB03KT P6SM FEW010 PROB30 2403/2413 3/4SM BR SCT005
BKN010
FM241400 06005KT P6SM SCT015 BKN070
FM241600 06008KT 6SM -RA BR BKN015 OVC070
RMK NXT FCST BY 240000Z=
Your time UTC time
Weather data provided by Environment Canada and NAV CANADA